createdAt,value
2022-08-30T00:00:12.128Z,1.13
2022-08-30T00:03:01.623Z,1.85
2022-08-30T00:05:30.985Z,0.47
2022-08-30T00:08:00.477Z,0.82
2022-08-30T00:10:30.254Z,2.28
2022-08-30T00:13:38.803Z,1.90
2022-08-30T00:16:32.031Z,1.45
2022-08-30T00:19:00.676Z,1.05
2022-08-30T00:21:28.645Z,1.27
2022-08-30T00:23:56.281Z,1.02
2022-08-30T00:26:23.841Z,2.55
2022-08-30T00:28:51.775Z,1.92
2022-08-30T00:31:19.437Z,1.63
2022-08-30T00:33:46.958Z,2.17
2022-08-30T00:36:16.119Z,1.85
2022-08-30T00:38:43.730Z,2.22
2022-08-30T00:41:11.441Z,1.40
2022-08-30T00:43:39.250Z,0.93
2022-08-30T00:46:08.690Z,1.15
2022-08-30T00:48:48.058Z,0.55
2022-08-30T00:51:18.893Z,5.22
2022-08-30T00:53:55.139Z,1.52
2022-08-30T00:56:26.145Z,2.25
2022-08-30T00:58:59.521Z,1.20
2022-08-30T01:01:28.765Z,2.40
2022-08-30T01:04:00.722Z,1.75
2022-08-30T01:06:32.584Z,1.00
2022-08-30T01:09:04.417Z,1.50
2022-08-30T01:11:37.516Z,0.93
2022-08-30T01:14:07.745Z,1.45
2022-08-30T01:16:38.030Z,0.73
2022-08-30T01:19:18.540Z,2.05
2022-08-30T01:22:00.204Z,1.15
2022-08-30T01:24:29.216Z,3.42
2022-08-30T01:26:57.944Z,1.25
2022-08-30T01:29:27.252Z,1.88
2022-08-30T01:31:54.958Z,0.85
2022-08-30T01:34:22.734Z,1.80
2022-08-30T01:36:51.455Z,1.13
2022-08-30T01:39:19.449Z,0.43
2022-08-30T01:41:55.009Z,3.75
2022-08-30T01:44:22.599Z,3.28
2022-08-30T01:46:50.356Z,0.60
2022-08-30T01:49:27.325Z,0.88
2022-08-30T01:52:00.481Z,1.40
2022-08-30T01:54:38.020Z,1.23
2022-08-30T01:57:13.185Z,1.17
2022-08-30T01:59:47.633Z,1.45
2022-08-30T02:02:25.931Z,1.55
2022-08-30T02:04:55.046Z,2.20
2022-08-30T02:07:24.815Z,2.72
2022-08-30T02:09:54.011Z,3.72
2022-08-30T02:12:21.740Z,0.80
2022-08-30T02:14:49.729Z,0.85
2022-08-30T02:17:19.485Z,1.73
2022-08-30T02:19:47.020Z,1.63
2022-08-30T02:22:14.923Z,2.55
2022-08-30T02:24:42.578Z,4.05
2022-08-30T02:27:10.051Z,0.98
2022-08-30T02:29:37.844Z,6.10
2022-08-30T02:32:06.066Z,2.70
2022-08-30T02:34:33.902Z,2.22
2022-08-30T02:37:01.723Z,2.40
2022-08-30T02:39:29.374Z,2.92
2022-08-30T02:41:57.073Z,2.25
2022-08-30T02:44:25.085Z,4.53
2022-08-30T02:46:52.648Z,3.75
2022-08-30T02:49:35.729Z,3.17
2022-08-30T02:52:05.915Z,2.08
2022-08-30T02:54:33.647Z,2.42
2022-08-30T02:57:06.378Z,1.58
2022-08-30T02:59:37.844Z,2.53
2022-08-30T03:02:08.258Z,5.93
2022-08-30T03:04:36.264Z,3.05
2022-08-30T03:07:03.981Z,3.53
2022-08-30T03:09:32.722Z,1.85
2022-08-30T03:12:00.957Z,0.83
2022-08-30T03:14:28.916Z,2.13
2022-08-30T03:16:56.526Z,1.55
2022-08-30T03:19:25.563Z,2.55
2022-08-30T03:21:53.125Z,1.85
2022-08-30T03:24:20.998Z,0.68
2022-08-30T03:26:48.781Z,1.67
2022-08-30T03:29:16.324Z,2.10
2022-08-30T03:31:52.998Z,1.05
2022-08-30T03:34:23.916Z,2.78
2022-08-30T03:36:54.809Z,2.08
2022-08-30T03:39:24.820Z,0.73
2022-08-30T03:41:54.020Z,1.25
2022-08-30T03:44:22.197Z,2.23
2022-08-30T03:46:50.524Z,0.35
2022-08-30T03:49:19.891Z,1.27
2022-08-30T03:51:48.705Z,0.38
2022-08-30T03:54:16.862Z,1.33
2022-08-30T03:56:44.542Z,0.95
2022-08-30T03:59:12.484Z,2.15
2022-08-30T04:01:42.097Z,1.55
2022-08-30T04:04:09.614Z,1.42
2022-08-30T04:06:37.422Z,2.67
2022-08-30T04:09:05.493Z,2.75
2022-08-30T04:11:33.721Z,2.70
2022-08-30T04:14:01.785Z,1.98
2022-08-30T04:16:29.817Z,2.58
2022-08-30T04:18:57.382Z,3.42
2022-08-30T04:21:25.063Z,3.28
2022-08-30T04:23:52.881Z,2.35
2022-08-30T04:26:20.523Z,1.48
2022-08-30T04:28:48.545Z,7.40
2022-08-30T04:31:19.175Z,1.67
2022-08-30T04:33:47.062Z,3.67
2022-08-30T04:36:15.315Z,2.55
2022-08-30T04:38:43.384Z,4.07
2022-08-30T04:41:16.426Z,2.53
2022-08-30T04:43:49.164Z,2.15
2022-08-30T04:46:18.290Z,2.85
2022-08-30T04:48:47.433Z,2.05
2022-08-30T04:51:17.910Z,2.83
2022-08-30T04:53:46.378Z,1.67
2022-08-30T04:56:22.472Z,0.38
2022-08-30T04:58:54.240Z,1.75
2022-08-30T05:01:28.901Z,3.30
2022-08-30T05:03:58.154Z,2.05
2022-08-30T05:06:31.203Z,2.30
2022-08-30T05:09:00.834Z,2.45
2022-08-30T05:11:29.041Z,1.73
2022-08-30T05:13:56.783Z,2.92
2022-08-30T05:16:24.774Z,1.92
2022-08-30T05:18:54.557Z,3.20
2022-08-30T05:21:29.178Z,2.13
2022-08-30T05:24:00.891Z,5.28
2022-08-30T05:26:37.289Z,3.40
2022-08-30T05:29:05.935Z,3.03
2022-08-30T05:31:37.280Z,3.80
2022-08-30T05:34:05.588Z,3.35
2022-08-30T05:36:38.059Z,3.75
2022-08-30T05:39:09.213Z,3.08
2022-08-30T05:41:38.371Z,2.97
2022-08-30T05:44:09.205Z,2.30
2022-08-30T05:46:38.077Z,3.35
2022-08-30T05:49:07.927Z,3.80
2022-08-30T05:51:42.739Z,2.38
2022-08-30T05:54:15.035Z,2.63
2022-08-30T05:56:45.854Z,1.40
2022-08-30T05:59:15.827Z,4.15
2022-08-30T06:01:47.106Z,2.58
2022-08-30T06:04:15.604Z,5.07
2022-08-30T06:06:45.134Z,2.13
2022-08-30T06:09:15.211Z,1.33
2022-08-30T06:11:45.311Z,5.63
2022-08-30T06:14:14.587Z,1.63
2022-08-30T06:16:45.904Z,5.97
2022-08-30T06:19:15.497Z,5.97
2022-08-30T06:21:48.374Z,1.85
2022-08-30T06:24:16.993Z,2.45
2022-08-30T06:26:47.218Z,4.25
2022-08-30T06:29:21.400Z,5.53
2022-08-30T06:31:50.400Z,3.70
2022-08-30T06:34:18.564Z,2.88
2022-08-30T06:36:46.358Z,3.53
2022-08-30T06:39:14.807Z,3.67
2022-08-30T06:41:43.269Z,5.68
2022-08-30T06:44:28.050Z,3.45
2022-08-30T06:46:58.356Z,1.67
2022-08-30T06:49:26.080Z,2.78
2022-08-30T06:51:54.062Z,3.05
2022-08-30T06:54:22.363Z,3.15
2022-08-30T06:56:58.190Z,3.38
2022-08-30T06:59:28.079Z,1.98
2022-08-30T07:01:56.619Z,4.80
2022-08-30T07:04:25.809Z,3.67
2022-08-30T07:06:54.042Z,4.10
2022-08-30T07:09:22.976Z,2.65
2022-08-30T07:11:53.043Z,3.00
2022-08-30T07:14:22.935Z,1.35
2022-08-30T07:16:52.264Z,4.03
2022-08-30T07:19:21.459Z,2.03
2022-08-30T07:21:50.662Z,3.08
2022-08-30T07:24:20.356Z,2.38
2022-08-30T07:26:51.939Z,3.55
2022-08-30T07:29:21.481Z,7.57
2022-08-30T07:31:49.703Z,2.90
2022-08-30T07:34:19.823Z,2.38
2022-08-30T07:36:49.746Z,5.20
2022-08-30T07:39:17.573Z,2.10
2022-08-30T07:41:45.488Z,2.83
2022-08-30T07:44:13.643Z,1.77
2022-08-30T07:46:42.513Z,3.17
2022-08-30T07:49:12.517Z,2.70
2022-08-30T07:51:41.448Z,3.00
2022-08-30T07:54:09.453Z,3.53
2022-08-30T07:56:37.367Z,2.60
2022-08-30T07:59:06.384Z,2.17
2022-08-30T08:01:34.498Z,2.20
2022-08-30T08:04:02.375Z,4.05
2022-08-30T08:06:34.966Z,3.97
2022-08-30T08:09:03.730Z,4.18
2022-08-30T08:11:34.110Z,1.92
2022-08-30T08:14:04.695Z,2.22
2022-08-30T08:16:35.627Z,6.88
2022-08-30T08:19:04.832Z,1.95
2022-08-30T08:24:00.815Z,2.55
2022-08-30T08:26:28.412Z,1.42
2022-08-30T08:28:56.123Z,1.90
2022-08-30T08:31:31.976Z,2.55
2022-08-30T08:34:05.989Z,4.57
2022-08-30T08:36:36.059Z,2.72
2022-08-30T08:39:07.273Z,2.42
2022-08-30T08:42:04.115Z,2.30
2022-08-30T08:45:10.231Z,1.95
2022-08-30T08:48:01.476Z,1.02
2022-08-30T08:50:32.966Z,1.80
2022-08-30T08:53:52.785Z,2.10
2022-08-30T08:56:23.231Z,2.00
2022-08-30T08:58:58.053Z,1.60
2022-08-30T09:01:30.150Z,2.35
2022-08-30T09:04:05.717Z,1.95
2022-08-30T09:07:47.512Z,1.70
2022-08-30T09:10:29.948Z,3.40
2022-08-30T09:13:08.301Z,2.10
2022-08-30T09:15:41.961Z,4.18
2022-08-30T09:18:18.958Z,2.65
2022-08-30T09:20:51.692Z,3.17
2022-08-30T09:23:27.752Z,3.33
2022-08-30T09:26:07.532Z,1.27
2022-08-30T09:28:51.391Z,0.30
2022-08-30T09:31:33.867Z,2.05
2022-08-30T09:34:06.877Z,1.40
2022-08-30T09:36:47.037Z,3.58
2022-08-30T09:39:27.721Z,2.40
2022-08-30T09:42:26.403Z,2.90
2022-08-30T09:45:10.759Z,4.15
2022-08-30T09:47:43.858Z,1.73
2022-08-30T09:53:31.316Z,2.17
2022-08-30T09:56:34.316Z,2.42
2022-08-30T09:59:24.706Z,0.95
2022-08-30T10:02:43.429Z,1.23
2022-08-30T10:05:29.379Z,3.45
2022-08-30T10:08:16.230Z,1.17
2022-08-30T10:10:56.219Z,1.13
2022-08-30T10:16:16.353Z,2.25
2022-08-30T10:19:06.908Z,1.85
2022-08-30T10:21:45.467Z,2.78
2022-08-30T10:24:21.288Z,2.08
2022-08-30T10:27:06.183Z,2.85
2022-08-30T10:30:00.556Z,3.00
2022-08-30T10:33:14.398Z,2.38
2022-08-30T10:35:59.113Z,1.38
2022-08-30T10:38:49.297Z,1.45
2022-08-30T10:41:32.042Z,3.97
2022-08-30T10:44:16.107Z,1.75
2022-08-30T10:47:05.081Z,3.28
2022-08-30T10:49:44.131Z,1.13
2022-08-30T10:52:23.946Z,1.40
2022-08-30T10:55:01.515Z,2.50
2022-08-30T10:57:29.192Z,2.25
2022-08-30T11:00:37.811Z,4.32
2022-08-30T11:03:29.628Z,4.35
2022-08-30T11:06:30.011Z,1.67
2022-08-30T11:09:19.182Z,2.80
2022-08-30T11:12:18.108Z,2.05
2022-08-30T11:14:47.258Z,1.92
2022-08-30T11:17:43.577Z,4.30
2022-08-30T11:20:44.991Z,4.65
2022-08-30T11:23:34.565Z,8.93
2022-08-30T11:26:20.518Z,2.70
2022-08-30T11:28:49.184Z,3.38
2022-08-30T11:31:22.880Z,3.92
2022-08-30T11:33:57.211Z,2.88
2022-08-30T11:36:37.777Z,2.35
2022-08-30T11:39:44.760Z,6.28
2022-08-30T11:42:34.760Z,1.80
2022-08-30T11:45:26.872Z,2.97
2022-08-30T11:48:10.815Z,3.30
2022-08-30T11:51:09.651Z,2.40
2022-08-30T11:54:02.121Z,5.40
2022-08-30T11:56:55.705Z,0.98
2022-08-30T12:00:11.218Z,2.35
2022-08-30T12:03:02.285Z,2.50
2022-08-30T12:05:55.102Z,4.07
2022-08-30T12:08:36.433Z,4.55
2022-08-30T12:11:33.801Z,3.42
2022-08-30T12:14:09.007Z,4.18
2022-08-30T12:17:07.456Z,5.53
2022-08-30T12:19:36.516Z,6.10
2022-08-30T12:22:17.005Z,3.47
2022-08-30T12:24:52.963Z,5.93
2022-08-30T12:27:33.049Z,3.85
2022-08-30T12:30:10.033Z,1.77
2022-08-30T12:32:48.746Z,2.70
2022-08-30T12:35:28.128Z,3.80
2022-08-30T12:38:06.122Z,4.32
2022-08-30T12:40:35.257Z,6.93
2022-08-30T12:43:25.286Z,2.33
2022-08-30T12:46:06.403Z,9.13
2022-08-30T12:48:41.331Z,1.40
2022-08-30T12:51:30.305Z,6.28
2022-08-30T12:54:21.712Z,5.75
2022-08-30T12:57:25.440Z,2.38
2022-08-30T13:00:02.174Z,2.40
2022-08-30T13:03:30.341Z,5.25
2022-08-30T13:05:59.335Z,5.72
2022-08-30T13:08:45.797Z,2.63
2022-08-30T13:11:22.706Z,1.98
2022-08-30T13:14:36.754Z,4.82
2022-08-30T13:17:22.838Z,1.50
2022-08-30T13:20:17.567Z,15.57
2022-08-30T13:23:25.756Z,2.47
2022-08-30T13:25:54.627Z,4.57
2022-08-30T13:28:23.684Z,4.60
2022-08-30T13:30:52.316Z,2.03
2022-08-30T13:33:21.029Z,2.38
2022-08-30T13:35:49.212Z,4.03
2022-08-30T13:38:17.980Z,4.40
2022-08-30T13:40:46.583Z,6.72
2022-08-30T13:43:15.478Z,3.55
2022-08-30T13:45:43.956Z,5.40
2022-08-30T13:48:17.486Z,1.40
2022-08-30T13:50:54.036Z,3.40
2022-08-30T13:56:14.101Z,3.42
2022-08-30T13:58:43.043Z,3.53
2022-08-30T14:01:11.881Z,4.07
2022-08-30T14:04:13.367Z,2.70
2022-08-30T14:06:33.898Z,4.35
2022-08-30T14:09:06.801Z,2.83
2022-08-30T14:11:35.713Z,3.53
2022-08-30T14:14:32.464Z,2.60
2022-08-30T14:16:53.907Z,2.90
2022-08-30T14:19:22.743Z,5.18
2022-08-30T14:21:55.356Z,7.43
2022-08-30T14:24:23.587Z,1.92
2022-08-30T14:26:52.805Z,7.18
2022-08-30T14:31:58.578Z,3.92
2022-08-30T14:34:28.640Z,3.55
2022-08-30T14:36:57.132Z,3.08
2022-08-30T14:39:27.056Z,2.50
2022-08-30T14:41:56.251Z,2.50
2022-08-30T14:44:25.989Z,5.18
2022-08-30T14:49:24.244Z,2.47
2022-08-30T14:51:52.956Z,4.95
2022-08-30T14:54:28.164Z,2.75
2022-08-30T14:56:57.673Z,2.25
2022-08-30T14:59:26.789Z,1.30
2022-08-30T15:01:55.839Z,5.03
2022-08-30T15:04:24.546Z,2.33
2022-08-30T15:06:54.057Z,2.95
2022-08-30T15:09:24.857Z,4.77
2022-08-30T15:11:58.773Z,5.18
2022-08-30T15:14:29.049Z,2.72
2022-08-30T15:16:59.153Z,3.10
2022-08-30T15:19:28.920Z,3.70
2022-08-30T15:24:30.392Z,3.08
2022-08-30T15:27:00.975Z,3.53
2022-08-30T15:29:30.714Z,2.85
2022-08-30T15:32:02.861Z,4.40
2022-08-30T15:34:31.952Z,1.48
2022-08-30T15:37:00.413Z,10.05
2022-08-30T15:39:29.534Z,27.85
2022-08-30T15:42:00.702Z,4.85
2022-08-30T15:44:34.439Z,5.22
2022-08-30T15:47:03.294Z,5.18
2022-08-30T15:49:31.955Z,9.73
2022-08-30T15:52:08.375Z,10.40
2022-08-30T15:56:18.458Z,3.83
2022-08-30T15:59:16.038Z,8.68
2022-08-30T16:01:45.243Z,7.18
2022-08-30T16:04:18.625Z,3.20
2022-08-30T16:06:47.343Z,5.78
2022-08-30T16:09:15.691Z,14.90
2022-08-30T16:11:43.822Z,12.00
2022-08-30T16:14:12.430Z,2.33
2022-08-30T16:16:41.976Z,3.50
2022-08-30T16:19:10.354Z,1.67
2022-08-30T16:21:41.756Z,2.22
2022-08-30T16:24:13.589Z,1.95
2022-08-30T16:26:43.698Z,2.10
2022-08-30T16:29:14.027Z,5.00
2022-08-30T16:31:44.506Z,3.22
2022-08-30T16:34:20.291Z,2.83
2022-08-30T16:36:49.530Z,2.17
2022-08-30T16:39:17.549Z,2.05
2022-08-30T16:41:46.885Z,5.95
2022-08-30T16:44:18.559Z,5.80
2022-08-30T16:46:52.852Z,6.68
2022-08-30T16:49:25.382Z,12.90
2022-08-30T16:51:54.638Z,35.80
2022-08-30T16:56:54.813Z,9.40
2022-08-30T16:59:23.667Z,5.68
2022-08-30T17:04:22.538Z,3.22
2022-08-30T17:06:51.499Z,2.28
2022-08-30T17:09:20.953Z,2.22
2022-08-30T17:11:50.435Z,5.47
2022-08-30T17:14:23.115Z,5.32
2022-08-30T17:19:47.187Z,3.67
2022-08-30T17:22:15.924Z,4.40
2022-08-30T17:24:43.851Z,6.45
2022-08-30T17:27:11.914Z,9.32
2022-08-30T17:29:40.526Z,7.15
2022-08-30T17:32:08.931Z,10.63
2022-08-30T17:34:37.418Z,7.95
2022-08-30T17:37:05.928Z,10.32
2022-08-30T17:39:34.610Z,20.50
2022-08-30T17:42:05.401Z,21.55
2022-08-30T17:44:38.122Z,22.08
2022-08-30T17:47:10.920Z,16.45
2022-08-30T17:49:39.423Z,26.33
2022-08-30T17:52:07.302Z,19.30
2022-08-30T17:54:41.256Z,8.20
2022-08-30T17:57:11.595Z,15.60
2022-08-30T17:59:41.039Z,11.68
2022-08-30T18:02:11.355Z,16.35
2022-08-30T18:04:42.382Z,16.02
2022-08-30T18:07:13.197Z,17.77
2022-08-30T18:09:43.311Z,14.52
2022-08-30T18:12:15.582Z,6.72
2022-08-30T18:14:47.395Z,7.57
2022-08-30T18:17:21.481Z,11.55
2022-08-30T18:19:50.302Z,9.50
2022-08-30T18:22:18.310Z,10.45
2022-08-30T18:24:47.603Z,11.32
2022-08-30T18:27:15.827Z,8.40
2022-08-30T18:29:44.118Z,12.32
2022-08-30T18:32:12.806Z,13.50
2022-08-30T18:34:42.943Z,10.43
2022-08-30T18:37:13.227Z,7.78
2022-08-30T18:39:43.054Z,5.28
2022-08-30T18:42:11.461Z,5.33
2022-08-30T18:44:43.643Z,5.82
2022-08-30T18:47:12.436Z,5.88
2022-08-30T18:49:40.718Z,4.90
2022-08-30T18:52:11.772Z,5.63
2022-08-30T18:54:52.636Z,4.03
2022-08-30T18:57:23.697Z,7.53
2022-08-30T18:59:53.068Z,5.43
2022-08-30T19:02:27.788Z,3.28
2022-08-30T19:04:57.470Z,5.85
2022-08-30T19:10:22.907Z,5.22
2022-08-30T19:12:53.489Z,5.05
2022-08-30T19:15:23.337Z,7.05
2022-08-30T19:17:52.780Z,3.63
2022-08-30T19:20:25.108Z,3.30
2022-08-30T19:23:09.836Z,5.30
2022-08-30T19:25:45.620Z,6.07
2022-08-30T19:28:21.441Z,4.25
2022-08-30T19:30:52.617Z,4.28
2022-08-30T19:33:21.585Z,6.53
2022-08-30T19:35:51.584Z,4.72
2022-08-30T19:38:20.483Z,5.95
2022-08-30T19:40:53.993Z,3.65
2022-08-30T19:43:25.049Z,7.45
2022-08-30T19:46:00.341Z,3.97
2022-08-30T19:48:32.762Z,5.60
2022-08-30T19:51:15.124Z,5.75
2022-08-30T19:53:44.620Z,4.80
2022-08-30T19:56:17.321Z,3.47
2022-08-30T19:58:45.382Z,5.03
2022-08-30T20:01:25.600Z,2.58
2022-08-30T20:04:03.168Z,4.78
2022-08-30T20:06:36.498Z,4.00
2022-08-30T20:09:07.266Z,3.90
2022-08-30T20:11:39.748Z,3.60
2022-08-30T20:14:10.681Z,6.00
2022-08-30T20:16:42.898Z,5.22
2022-08-30T20:19:16.325Z,3.63
2022-08-30T20:21:47.501Z,4.93
2022-08-30T20:24:18.714Z,2.13
2022-08-30T20:24:23.645Z,5.28
2022-08-30T20:24:31.848Z,3.95
2022-08-30T20:26:46.929Z,7.88
2022-08-30T20:29:15.282Z,2.75
2022-08-30T20:31:43.618Z,4.20
2022-08-30T20:34:12.371Z,6.22
2022-08-30T20:36:40.515Z,2.35
2022-08-30T20:39:10.203Z,3.58
2022-08-30T20:41:45.205Z,8.88
2022-08-30T20:44:15.299Z,6.47
2022-08-30T20:46:46.560Z,6.75
2022-08-30T20:49:15.694Z,8.20
2022-08-30T20:51:43.876Z,8.38
2022-08-30T20:54:11.780Z,3.88
2022-08-30T20:56:40.726Z,3.40
2022-08-30T20:59:08.438Z,6.63
2022-08-30T21:01:39.025Z,5.95
2022-08-30T21:04:10.503Z,3.13
2022-08-30T21:06:38.468Z,3.22
2022-08-30T21:09:08.879Z,5.57
2022-08-30T21:11:38.468Z,3.63
2022-08-30T21:14:12.870Z,7.32
2022-08-30T21:16:41.388Z,3.17
2022-08-30T21:19:09.273Z,6.13
2022-08-30T21:21:37.059Z,3.13
2022-08-30T21:24:10.341Z,7.25
2022-08-30T21:26:41.150Z,3.33
2022-08-30T21:29:10.177Z,3.00
2022-08-30T21:31:39.917Z,9.27
2022-08-30T21:34:08.471Z,10.27
2022-08-30T21:36:48.612Z,4.57
2022-08-30T21:39:27.414Z,3.75
2022-08-30T21:41:57.150Z,3.60
2022-08-30T21:44:27.494Z,4.53
2022-08-30T21:46:56.289Z,9.00
2022-08-30T21:49:25.056Z,2.90
2022-08-30T21:51:55.497Z,3.83
2022-08-30T21:54:25.395Z,3.75
2022-08-30T21:57:02.146Z,3.85
2022-08-30T21:59:30.472Z,6.07
2022-08-30T22:01:59.592Z,4.07
2022-08-30T22:04:29.876Z,5.63
2022-08-30T22:06:57.925Z,5.30
2022-08-30T22:09:26.342Z,5.72
2022-08-30T22:11:55.841Z,4.18
2022-08-30T22:14:24.521Z,5.00
2022-08-30T22:16:55.008Z,4.03
2022-08-30T22:19:23.729Z,5.00
2022-08-30T22:22:00.956Z,10.43
2022-08-30T22:24:32.647Z,4.18
2022-08-30T22:27:03.639Z,3.38
2022-08-30T22:29:33.073Z,4.05
2022-08-30T22:32:01.386Z,3.10
2022-08-30T22:34:29.869Z,3.85
2022-08-30T22:36:58.593Z,3.85
2022-08-30T22:39:27.646Z,3.35
2022-08-30T22:41:57.907Z,3.20
2022-08-30T22:44:26.457Z,4.57
2022-08-30T22:46:54.203Z,2.30
2022-08-30T22:49:21.982Z,3.17
2022-08-30T22:51:49.926Z,6.68
2022-08-30T22:54:17.838Z,2.08
2022-08-30T22:56:45.641Z,4.97
2022-08-30T22:59:13.493Z,6.35
2022-08-30T23:01:43.422Z,3.28
2022-08-30T23:04:12.276Z,4.15
2022-08-30T23:06:41.197Z,5.90
2022-08-30T23:09:14.449Z,4.32
2022-08-30T23:11:42.208Z,4.07
2022-08-30T23:14:10.128Z,4.65
2022-08-30T23:16:38.135Z,1.58
2022-08-30T23:19:06.139Z,4.68
2022-08-30T23:21:33.942Z,3.15
2022-08-30T23:24:20.109Z,1.73
2022-08-30T23:27:06.780Z,3.58
2022-08-30T23:29:54.018Z,2.72
2022-08-30T23:32:41.309Z,2.72
2022-08-30T23:35:30.949Z,2.45
2022-08-30T23:38:21.471Z,3.58
2022-08-30T23:41:07.600Z,2.95
2022-08-30T23:43:54.854Z,2.92
2022-08-30T23:46:41.696Z,5.30
2022-08-30T23:49:28.595Z,3.67
2022-08-30T23:52:16.042Z,2.22
2022-08-30T23:55:02.220Z,8.38
2022-08-30T23:57:48.345Z,3.28
